Time;durP1;ratioP1;P1;durP2;ratioP2;P2;SDS_P1;SDS_P2;PMS_P1;PMS_P2;Temp;Humidity;BMP_temperature;BMP_pressure;BME280_temperature;BME280_humidity;BME280_pressure;Samples;Min_cycle;Max_cycle;Signal;HPM_P1;HPM_P2
2022/09/27 00:02:19;;;;;;;6.45;5.85;;;;;;;17.87;56.20;98825.02;2075494;93;25802;-79
2022/09/27 00:05:44;;;;;;;6.28;5.67;;;;;;;17.87;56.26;98821.06;2052130;93;25896;-78
2022/09/27 00:09:12;;;;;;;7.00;6.30;;;;;;;17.87;56.37;98825.02;2053100;94;25856;-79
2022/09/27 00:12:37;;;;;;;6.97;6.37;;;;;;;17.86;56.43;98823.77;2046594;92;26065;-78
2022/09/27 00:16:20;;;;;;;6.35;5.83;;;;;;;17.84;56.46;98819.84;2031989;95;25754;-79
2022/09/27 00:19:45;;;;;;;6.45;5.85;;;;;;;17.83;56.55;98820.76;2031489;95;25843;-79
2022/09/27 00:23:26;;;;;;;6.60;6.10;;;;;;;17.83;56.60;98814.17;1943534;100;25890;-79
2022/09/27 00:26:45;;;;;;;7.83;7.22;;;;;;;17.85;56.64;98807.09;1944666;98;25801;-77
2022/09/27 00:30:20;;;;;;;8.05;6.60;;;;;;;17.84;56.65;98807.12;1943689;100;25807;-79
2022/09/27 00:33:59;;;;;;;7.00;5.95;;;;;;;17.83;56.74;98808.04;1943749;100;25792;-78
2022/09/27 00:37:22;;;;;;;7.12;6.47;;;;;;;17.85;56.82;98809.73;1945470;100;25782;-79
2022/09/27 00:40:56;;;;;;;10.30;7.33;;;;;;;17.86;56.76;98800.89;1946071;100;25914;-77
2022/09/27 00:44:37;;;;;;;7.50;6.65;;;;;;;17.86;56.79;98792.13;1943120;100;25855;-80
2022/09/27 00:48:11;;;;;;;9.40;6.58;;;;;;;17.85;56.80;98791.70;1975281;97;25826;-79
2022/09/27 00:51:59;;;;;;;;;;;;;;;17.84;56.87;98777.66;2004320;97;25829;-79
2022/09/27 00:55:30;;;;;;;8.88;7.97;;;;;;;17.85;56.88;98782.47;2001154;97;25666;-80
2022/09/27 00:58:55;;;;;;;;;;;;;;;17.83;56.88;98780.36;2004746;97;25800;-78
2022/09/27 01:02:24;;;;;;;7.90;7.00;;;;;;;17.83;56.97;98784.31;1956154;99;25937;-77
2022/09/27 01:05:53;;;;;;;7.92;7.08;;;;;;;17.79;56.95;98776.96;1954707;98;25791;-77
2022/09/27 01:09:17;;;;;;;6.92;6.35;;;;;;;17.80;56.99;98771.23;1876942;104;25896;-77
2022/09/27 01:12:55;;;;;;;12.98;7.65;;;;;;;17.81;57.01;98763.26;1849854;105;25861;-79
2022/09/27 01:16:31;;;;;;;8.58;7.75;;;;;;;17.83;57.05;98768.04;1843784;105;26183;-80
2022/09/27 01:20:11;;;;;;;7.80;7.08;;;;;;;17.85;57.04;98775.88;1840896;105;25833;-80
2022/09/27 01:24:23;;;;;;;9.35;7.25;;;;;;;17.85;57.05;98772.82;1866309;104;25980;-80
2022/09/27 01:28:09;;;;;;;7.87;7.08;;;;;;;17.84;57.15;98772.39;1866589;103;25812;-79
2022/09/27 01:31:43;;;;;;;7.83;7.22;;;;;;;17.84;57.08;98767.12;1899508;102;26400;-79
2022/09/27 01:35:24;;;;;;;7.10;6.50;;;;;;;17.85;57.08;98770.61;1880047;102;25767;-79
2022/09/27 01:39:37;;;;;;;7.75;7.05;;;;;;;17.85;57.13;98774.56;1887598;101;25853;-80
2022/09/27 01:43:38;;;;;;;8.08;7.35;;;;;;;17.84;57.15;98772.39;1947021;99;25817;-80
2022/09/27 01:47:10;;;;;;;8.00;7.30;;;;;;;17.79;57.20;98757.66;1946579;100;25941;-79
2022/09/27 01:51:00;;;;;;;10.38;7.58;;;;;;;17.77;57.24;98762.09;1901208;102;25835;-79
2022/09/27 01:54:38;;;;;;;7.72;7.03;;;;;;;17.70;57.31;98749.08;1907921;102;25809;-79
2022/09/27 01:58:26;;;;;;;7.53;6.92;;;;;;;17.73;57.38;98758.66;1892752;102;25966;-79
2022/09/27 02:01:51;;;;;;;8.50;7.65;;;;;;;17.76;57.34;98756.39;1899180;102;26521;-80
2022/09/27 02:05:19;;;;;;;10.40;8.10;;;;;;;17.71;57.34;98746.83;1886496;102;25831;-79
2022/09/27 02:09:17;;;;;;;8.55;7.83;;;;;;;17.69;57.40;98749.14;1849050;105;26146;-79
2022/09/27 02:13:21;;;;;;;9.83;7.67;;;;;;;17.66;57.47;98743.50;1821072;106;25832;-78
2022/09/27 02:16:55;;;;;;;8.65;7.85;;;;;;;17.66;57.49;98748.77;1877677;103;25876;-79
2022/09/27 02:20:49;;;;;;;7.92;7.42;;;;;;;17.66;57.50;98741.33;1913445;101;25867;-79
2022/09/27 02:24:26;;;;;;;8.15;7.47;;;;;;;17.64;57.52;98730.81;1870239;104;25872;-78
2022/09/27 02:28:12;;;;;;;10.13;7.25;;;;;;;17.65;57.62;98734.31;1914842;101;25806;-78
2022/09/27 02:31:40;;;;;;;8.90;7.87;;;;;;;17.65;57.60;98735.20;1968119;99;25934;-79
2022/09/27 02:35:20;;;;;;;9.28;8.38;;;;;;;17.65;57.59;98734.31;1974471;97;26230;-79
2022/09/27 02:38:45;;;;;;;9.88;8.38;;;;;;;17.64;57.64;98730.81;2000048;96;25453;-79
2022/09/27 02:42:18;;;;;;;8.45;7.65;;;;;;;17.66;57.62;98725.05;2000348;96;25776;-79
2022/09/27 02:46:11;;;;;;;8.38;7.67;;;;;;;17.67;57.60;98736.45;2000819;97;25777;-78
2022/09/27 02:49:53;;;;;;;8.73;7.90;;;;;;;17.65;57.65;98729.92;2006610;97;25875;-78
2022/09/27 02:53:59;;;;;;;9.98;8.98;;;;;;;17.63;57.60;98729.56;1963814;99;25816;-77
2022/09/27 02:58:18;;;;;;;10.35;9.43;;;;;;;17.58;57.66;98723.13;1967175;99;25766;-78
2022/09/27 03:02:33;;;;;;;17.48;9.65;;;;;;;17.54;57.76;98712.71;1967703;99;25799;-79
2022/09/27 03:06:20;;;;;;;10.38;9.53;;;;;;;17.47;57.83;98718.63;1967183;99;25355;-79
2022/09/27 03:09:52;;;;;;;10.50;9.60;;;;;;;17.42;57.95;98712.20;1967036;99;26453;-79
2022/09/27 03:13:13;;;;;;;9.93;9.13;;;;;;;17.43;57.97;98715.23;1974653;97;25879;-79
2022/09/27 03:20:14;;;;;;;11.97;10.78;;;;;;;17.41;58.05;98717.06;1950270;99;26278;-78
2022/09/27 03:23:49;;;;;;;13.20;10.45;;;;;;;17.38;58.12;98713.63;1926838;100;25894;-80
2022/09/27 03:27:31;;;;;;;10.72;9.73;;;;;;;17.38;58.18;98714.95;1911395;99;25762;-80
2022/09/27 03:30:53;;;;;;;11.30;10.38;;;;;;;17.37;58.21;98710.60;1871272;103;25893;-79
2022/09/27 03:34:25;;;;;;;12.88;11.75;;;;;;;17.38;58.25;98713.63;1861424;103;25870;-79
2022/09/27 03:37:59;;;;;;;11.22;10.15;;;;;;;17.37;58.25;98708.83;1878824;103;25888;-79
2022/09/27 03:41:25;;;;;;;12.47;11.28;;;;;;;17.39;58.23;98696.94;1878953;103;25794;-78
2022/09/27 03:45:01;;;;;;;13.13;11.75;;;;;;;17.38;58.23;98694.77;1894713;102;25858;-77
2022/09/27 03:48:34;;;;;;;13.60;12.15;;;;;;;17.37;58.29;98690.84;1878625;103;25922;-77
2022/09/27 03:51:57;;;;;;;16.55;13.00;;;;;;;17.37;58.30;98694.34;1826794;106;25780;-79
2022/09/27 03:55:25;;;;;;;12.65;11.35;;;;;;;17.35;58.29;98683.47;1826907;106;26185;-78
2022/09/27 03:58:50;;;;;;;13.60;12.37;;;;;;;17.34;58.36;98689.63;1826754;106;34884;-78
2022/09/27 04:02:19;;;;;;;14.03;12.37;;;;;;;17.31;58.38;98685.30;1826808;106;26019;-79
2022/09/27 04:06:14;;;;;;;13.18;11.88;;;;;;;17.30;58.38;98684.91;1826847;106;25880;-79
2022/09/27 04:09:33;;;;;;;15.28;12.05;;;;;;;17.30;58.37;98674.37;1773750;109;25845;-78
2022/09/27 04:13:10;;;;;;;13.08;11.80;;;;;;;17.30;58.39;98670.88;1752612;111;25873;-79
2022/09/27 04:16:54;;;;;;;14.28;12.15;;;;;;;17.30;58.40;98672.20;1747505;111;25969;-79
2022/09/27 04:20:21;;;;;;;13.48;12.18;;;;;;;17.31;58.40;98676.55;1755989;110;25801;-79
2022/09/27 04:23:51;;;;;;;13.90;12.63;;;;;;;17.28;58.39;98672.26;1763682;110;26161;-79
2022/09/27 04:27:24;;;;;;;14.45;12.68;;;;;;;17.23;58.41;98668.43;1791947;107;25913;-78
2022/09/27 04:30:53;;;;;;;14.33;12.85;;;;;;;17.23;58.45;98662.30;1792935;107;25902;-80
2022/09/27 04:38:21;;;;;;;13.18;11.93;;;;;;;17.21;58.40;98664.11;1819591;107;25852;-78
2022/09/27 04:41:55;;;;;;;16.65;12.65;;;;;;;17.21;58.46;98668.06;1844301;107;25836;-79
2022/09/27 04:45:35;;;;;;;14.47;13.05;;;;;;;17.23;58.41;98665.80;1845031;107;25739;-80
2022/09/27 04:48:59;;;;;;;14.33;12.75;;;;;;;17.22;58.42;98672.44;1903767;101;25801;-80
2022/09/27 04:52:36;;;;;;;15.00;13.05;;;;;;;17.23;58.41;98679.42;1948959;101;25728;-79
2022/09/27 04:56:18;;;;;;;13.93;12.47;;;;;;;17.21;58.44;98674.64;1933355;101;25401;-79
2022/09/27 04:59:34;;;;;;;15.20;13.62;;;;;;;17.18;58.46;98680.89;1947710;101;25866;-79
2022/09/27 05:03:00;;;;;;;14.65;13.03;;;;;;;17.15;58.50;98680.98;1949749;101;28238;-81
2022/09/27 05:06:39;;;;;;;16.23;14.58;;;;;;;17.12;58.56;98682.84;1948177;100;25356;-80
2022/09/27 05:10:13;;;;;;;19.23;14.35;;;;;;;17.09;58.65;98676.36;1969613;99;25790;-78
2022/09/27 05:13:48;;;;;;;14.80;12.85;;;;;;;17.09;58.69;98669.77;1984242;96;25355;-80
2022/09/27 05:17:16;;;;;;;16.05;14.35;;;;;;;17.09;58.68;98673.72;2018054;97;26337;-80
2022/09/27 05:20:57;;;;;;;15.88;13.85;;;;;;;17.08;58.80;98661.47;2017932;98;25836;-78
2022/09/27 05:24:39;;;;;;;21.02;16.23;;;;;;;17.09;58.80;98664.05;2017331;97;25872;-79
2022/09/27 05:31:50;;;;;;;22.58;16.60;;;;;;;17.05;58.93;98669.00;1947322;100;25766;-80
2022/09/27 05:35:34;;;;;;;17.48;15.63;;;;;;;17.05;59.02;98660.25;1944899;100;25729;-77
2022/09/27 05:39:10;;;;;;;21.57;16.07;;;;;;;17.05;59.04;98651.89;1888015;101;25761;-78
2022/09/27 05:42:39;;;;;;;25.12;18.60;;;;;;;17.07;59.11;98654.47;1887881;103;25831;-79
2022/09/27 05:46:04;;;;;;;18.65;15.43;;;;;;;17.00;59.16;98657.27;1858519;103;25864;-78
2022/09/27 05:49:28;;;;;;;17.60;15.75;;;;;;;16.98;59.31;98654.30;1859916;104;25917;-79
2022/09/27 05:53:00;;;;;;;19.95;15.90;;;;;;;17.03;59.34;98655.02;1860104;104;25808;-79
2022/09/27 05:56:23;;;;;;;24.63;18.12;;;;;;;17.10;59.32;98655.69;1858888;104;25857;-78
2022/09/27 06:00:10;;;;;;;24.95;17.12;;;;;;;17.19;59.29;98654.95;1859637;105;25932;-79
2022/09/27 06:03:41;;;;;;;17.87;15.93;;;;;;;17.28;59.16;98666.10;1859772;104;25798;-79
2022/09/27 06:07:28;;;;;;;25.92;18.30;;;;;;;17.34;59.07;98673.36;1859558;105;25864;-80
2022/09/27 06:11:03;;;;;;;20.60;16.42;;;;;;;17.31;58.93;98677.86;1860208;104;26549;-79
2022/09/27 06:14:43;;;;;;;19.87;16.15;;;;;;;17.26;59.01;98671.44;1874118;102;26622;-79
2022/09/27 06:18:22;;;;;;;18.70;16.60;;;;;;;17.26;59.06;98666.16;1861520;104;25367;-80
2022/09/27 06:22:02;;;;;;;19.95;15.90;;;;;;;17.27;59.03;98663.07;1864654;104;25833;-80
2022/09/27 06:25:28;;;;;;;20.05;17.30;;;;;;;17.27;59.06;98654.71;1881844;103;26354;-80
2022/09/27 06:29:18;;;;;;;21.60;16.73;;;;;;;17.32;58.97;98659.39;1914550;102;26579;-80
2022/09/27 06:32:52;;;;;;;21.05;16.23;;;;;;;17.27;59.01;98659.98;1926877;101;26096;-79
2022/09/27 06:36:18;;;;;;;21.07;16.12;;;;;;;17.28;59.12;98664.78;1897868;101;25914;-78
2022/09/27 06:39:57;;;;;;;18.27;15.65;;;;;;;17.34;59.03;98662.82;1840775;106;25851;-80
2022/09/27 06:43:29;;;;;;;23.25;15.90;;;;;;;17.36;59.00;98659.70;1880146;103;25881;-79
2022/09/27 06:47:16;;;;;;;23.35;17.60;;;;;;;17.36;58.96;98656.21;1903331;102;25856;-80
2022/09/27 06:51:02;;;;;;;20.80;15.23;;;;;;;17.34;58.93;98654.06;1914182;101;25786;-82
2022/09/27 06:54:29;;;;;;;22.07;16.45;;;;;;;17.26;59.01;98642.92;1899428;102;25877;-80
2022/09/27 07:02:06;;;;;;;18.48;14.87;;;;;;;17.34;58.96;98649.66;1870957;104;25929;-79
2022/09/27 07:06:09;;;;;;;15.70;13.55;;;;;;;17.38;58.95;98664.48;1877137;103;26000;-80
2022/09/27 07:09:47;;;;;;;17.70;13.50;;;;;;;17.46;58.82;98671.66;1897060;102;25983;-80
2022/09/27 07:13:33;;;;;;;14.43;12.88;;;;;;;17.52;58.65;98682.94;1905044;102;25994;-79
2022/09/27 07:20:37;;;;;;;12.63;11.43;;;;;;;17.43;58.55;98686.71;1916896;101;25528;-79
2022/09/27 07:24:11;;;;;;;12.40;11.03;;;;;;;17.41;58.55;98684.14;1893675;99;32304;-80
2022/09/27 07:27:46;;;;;;;10.88;9.83;;;;;;;17.39;58.51;98685.09;2050290;95;25963;-80
2022/09/27 07:31:20;;;;;;;12.43;10.55;;;;;;;17.38;58.55;98682.91;2049894;96;25902;-79
2022/09/27 07:34:53;;;;;;;11.55;9.95;;;;;;;17.42;58.48;98696.85;2050000;95;26599;-79
2022/09/27 07:38:31;;;;;;;17.90;10.30;;;;;;;17.47;58.43;98687.02;2050717;96;26490;-80
2022/09/27 07:42:14;;;;;;;13.03;11.10;;;;;;;17.50;58.30;98681.66;2050395;95;25834;-81
2022/09/27 07:46:05;;;;;;;14.33;11.80;;;;;;;17.50;58.27;98680.80;2049436;95;54729;-82
2022/09/27 07:49:40;;;;;;;14.25;12.37;;;;;;;17.37;58.18;98679.85;2019325;96;25899;-85
2022/09/27 07:53:17;;;;;;;14.98;12.30;;;;;;;17.06;58.46;98673.81;1966837;98;25740;-82
2022/09/27 07:56:49;;;;;;;14.83;12.33;;;;;;;16.86;58.89;98671.77;1980399;96;25934;-79
2022/09/27 08:00:21;;;;;;;15.75;12.70;;;;;;;16.73;59.17;98665.95;2015834;96;25811;-81
2022/09/27 08:07:47;;;;;;;20.80;13.25;;;;;;;16.52;59.82;98681.90;1970076;98;25828;-81
2022/09/27 08:11:28;;;;;;;16.97;13.90;;;;;;;16.43;59.97;98671.17;1778949;109;25869;-80
2022/09/27 08:15:19;;;;;;;;;;;;;;;;;;;;;
2022/09/27 08:18:47;;;;;;;16.23;13.22;;;;;;;16.36;60.54;98672.24;1807727;107;25916;-82
2022/09/27 08:22:20;;;;;;;21.17;13.38;;;;;;;16.43;60.65;98675.11;1850973;104;25989;-81
2022/09/27 08:25:48;;;;;;;18.23;12.85;;;;;;;16.48;60.72;98671.06;1855325;104;25999;-80
2022/09/27 08:29:38;;;;;;;19.23;13.95;;;;;;;16.50;60.81;98679.75;1884775;102;26046;-80
2022/09/27 08:33:02;;;;;;;13.20;11.88;;;;;;;16.52;60.75;98686.70;1865096;103;25954;-81
2022/09/27 08:36:28;;;;;;;16.23;12.18;;;;;;;16.51;60.74;98688.94;1880781;103;25909;-80
2022/09/27 08:39:59;;;;;;;14.33;12.45;;;;;;;16.45;60.83;98686.92;1873304;103;25896;-80
2022/09/27 08:43:49;;;;;;;14.68;11.22;;;;;;;16.48;60.88;98685.07;1855098;105;25454;-79
2022/09/27 08:47:35;;;;;;;11.97;10.78;;;;;;;16.45;60.89;98689.09;1861514;100;25880;-80
2022/09/27 08:50:59;;;;;;;12.25;10.58;;;;;;;16.48;60.92;98689.02;1878679;103;26342;-80
2022/09/27 08:54:28;;;;;;;12.55;11.30;;;;;;;16.57;60.86;98692.28;1859804;104;26053;-82
2022/09/27 08:57:53;;;;;;;13.03;11.68;;;;;;;16.68;60.69;98691.09;1877116;103;25779;-81
2022/09/27 09:01:24;;;;;;;13.98;12.00;;;;;;;16.75;60.54;98690.50;1880745;103;25825;-81
2022/09/27 09:05:22;;;;;;;12.50;11.22;;;;;;;16.84;60.35;98687.61;1898550;102;25780;-80
2022/09/27 09:09:05;;;;;;;13.00;11.53;;;;;;;16.90;60.14;98693.13;2062753;93;25875;-80
2022/09/27 09:12:52;;;;;;;11.48;10.38;;;;;;;16.88;60.03;98688.39;2059756;94;25616;-80
2022/09/27 09:17:02;;;;;;;12.13;10.72;;;;;;;16.90;60.02;98686.09;2068571;93;25702;-80
2022/09/27 09:21:02;;;;;;;13.80;11.50;;;;;;;16.94;59.92;98677.23;2099111;93;25761;-81
2022/09/27 09:25:11;;;;;;;13.68;10.90;;;;;;;17.00;59.86;98671.75;2069580;95;25831;-81
2022/09/27 09:29:02;;;;;;;11.10;10.03;;;;;;;17.08;59.72;98666.28;2070177;95;25834;-80
2022/09/27 09:33:22;;;;;;;11.63;10.60;;;;;;;17.22;59.59;98661.45;2065072;95;25915;-80
2022/09/27 09:37:24;;;;;;;15.00;11.10;;;;;;;17.33;59.48;98668.16;2082689;93;25903;-81
2022/09/27 09:41:27;;;;;;;12.50;10.53;;;;;;;17.36;59.30;98655.75;2068109;95;25783;-81
2022/09/27 09:45:33;;;;;;;14.33;11.55;;;;;;;17.43;59.18;98658.59;2099597;93;25814;-81
2022/09/27 09:49:35;;;;;;;13.20;11.90;;;;;;;17.43;59.21;98661.22;2090969;92;25919;-82
2022/09/27 09:53:25;;;;;;;12.95;11.70;;;;;;;17.44;59.06;98660.30;2069796;94;25769;-80
2022/09/27 09:57:14;;;;;;;9.90;8.53;;;;;;;17.42;59.06;98666.56;2089473;92;25321;-82
2022/09/27 10:04:31;;;;;;;10.78;8.93;;;;;;;17.96;59.28;98666.16;1940442;100;25831;-79
2022/09/27 10:08:07;;;;;;;21.65;8.43;;;;;;;18.21;58.66;98666.16;1948820;98;25805;-79
2022/09/27 10:11:47;;;;;;;10.40;9.33;;;;;;;18.51;58.27;98658.94;1912088;100;25986;-79
2022/09/27 10:15:27;;;;;;;12.13;8.88;;;;;;;18.74;57.75;98652.86;1900169;102;25744;-79
2022/09/27 10:18:56;;;;;;;10.15;9.15;;;;;;;18.93;57.29;98653.00;1911946;102;25772;-77
2022/09/27 10:22:42;;;;;;;14.60;10.00;;;;;;;19.07;57.01;98642.33;1904190;102;25926;-80
2022/09/27 10:26:26;;;;;;;10.50;9.45;;;;;;;19.22;56.51;98639.55;1958037;97;26007;-78
2022/09/27 10:30:01;;;;;;;11.75;9.45;;;;;;;19.23;56.32;98641.25;2003671;97;25806;-80
2022/09/27 10:33:27;;;;;;;11.60;10.20;;;;;;;19.30;56.29;98640.12;2004557;96;26619;-79
2022/09/27 10:37:25;;;;;;;11.43;10.20;;;;;;;19.32;55.96;98640.05;2030077;95;26349;-80
2022/09/27 10:41:17;;;;;;;11.00;9.95;;;;;;;19.40;55.77;98641.05;2077330;94;25293;-77
2022/09/27 10:44:48;;;;;;;11.28;10.00;;;;;;;19.44;55.70;98638.67;2107672;93;25732;-79
2022/09/27 10:48:29;;;;;;;12.37;11.08;;;;;;;19.39;55.17;98644.16;2115789;90;25741;-78
2022/09/27 10:52:23;;;;;;;11.63;10.53;;;;;;;19.38;55.32;98646.88;2114902;92;25658;-79
2022/09/27 10:55:56;;;;;;;11.15;10.25;;;;;;;19.34;55.15;98629.82;2135656;92;26168;-82
2022/09/27 10:59:48;;;;;;;9.95;8.95;;;;;;;19.38;55.08;98623.09;2051376;95;25836;-80
2022/09/27 11:03:19;;;;;;;12.25;10.05;;;;;;;19.39;55.12;98636.69;2052607;95;25740;-81
2022/09/27 11:06:45;;;;;;;11.63;10.30;;;;;;;19.49;55.05;98632.76;1953946;99;25803;-79
2022/09/27 11:10:42;;;;;;;10.53;9.45;;;;;;;19.61;54.93;98627.42;1927980;100;25804;-81
2022/09/27 11:14:32;;;;;;;11.50;10.50;;;;;;;19.64;54.71;98626.00;1925638;101;25924;-80
2022/09/27 11:18:14;;;;;;;11.53;10.63;;;;;;;19.70;54.46;98623.11;1749075;105;26021;-77
2022/09/27 11:21:57;;;;;;;;;;;;;;;19.63;54.11;98605.33;1799809;105;26059;-88
2022/09/27 11:26:05;;;;;;;13.32;11.93;;;;;;;19.38;53.94;98601.95;1878189;103;26115;-80
2022/09/27 11:29:47;;;;;;;11.97;11.00;;;;;;;19.11;54.25;98610.06;1878218;103;26557;-78
2022/09/27 11:33:50;;;;;;;12.30;10.93;;;;;;;18.87;54.42;98603.95;1928561;99;25987;-76
2022/09/27 11:37:38;;;;;;;13.15;11.70;;;;;;;18.62;54.76;98595.59;1903636;101;25976;-78
2022/09/27 11:41:59;;;;;;;11.78;10.80;;;;;;;18.50;54.95;98589.48;1818246;107;25426;-76
2022/09/27 11:45:56;;;;;;;12.73;11.43;;;;;;;18.37;55.20;98586.89;1863928;104;26185;-76
2022/09/27 11:50:07;;;;;;;12.20;11.10;;;;;;;18.26;55.52;98582.44;1873917;104;26068;-78
2022/09/27 11:54:25;;;;;;;10.48;9.68;;;;;;;18.15;55.69;98586.79;1869223;104;25927;-77
2022/09/27 11:58:28;;;;;;;10.60;9.65;;;;;;;18.09;55.91;98581.73;1924995;100;26634;-80
2022/09/27 12:02:39;;;;;;;18.00;10.88;;;;;;;18.18;56.55;98576.98;1922188;102;25886;-78
2022/09/27 12:06:36;;;;;;;11.20;10.30;;;;;;;18.48;56.15;98580.75;1925401;100;25837;-77
2022/09/27 12:10:07;;;;;;;10.93;10.13;;;;;;;18.50;55.89;98576.75;1955506;99;25921;-77
2022/09/27 12:13:40;;;;;;;11.93;10.80;;;;;;;18.72;55.95;98575.03;1986053;96;26153;-77
2022/09/27 12:17:37;;;;;;;11.40;10.43;;;;;;;18.69;55.53;98572.94;1977914;95;25443;-79
2022/09/27 12:21:12;;;;;;;;;;;;;;;18.59;55.60;98568.47;2071973;94;26343;-78
2022/09/27 12:24:45;;;;;;;11.03;10.13;;;;;;;18.61;55.54;98564.86;2093926;93;25343;-77
2022/09/27 12:28:59;;;;;;;10.65;9.75;;;;;;;18.66;55.27;98567.30;2019617;96;25964;-76
2022/09/27 12:32:57;;;;;;;10.70;9.80;;;;;;;18.65;55.30;98565.12;2036061;96;25827;-79
2022/09/27 12:36:32;;;;;;;9.33;8.45;;;;;;;18.78;55.25;98564.23;2048731;93;26390;-78
2022/09/27 12:40:39;;;;;;;10.25;8.38;;;;;;;18.80;55.01;98561.09;2048671;96;25860;-80
2022/09/27 12:44:16;;;;;;;9.15;8.45;;;;;;;18.88;54.89;98554.19;2047429;95;26194;-81
2022/09/27 12:48:04;;;;;;;;;;;;;;;18.99;54.67;98546.69;2033413;97;25865;-80
2022/09/27 12:52:24;;;;;;;;;;;;;;;;;;;;;
2022/09/27 12:56:14;;;;;;;7.65;7.15;;;;;;;19.18;54.37;98553.42;2019744;97;25857;-79
2022/09/27 13:04:00;;;;;;;7.70;6.97;;;;;;;19.33;54.02;98556.73;2002902;97;25704;-78
2022/09/27 13:07:51;;;;;;;6.80;6.10;;;;;;;19.46;53.70;98545.67;2000710;97;26577;-78
2022/09/27 13:11:51;;;;;;;8.43;7.62;;;;;;;19.48;53.33;98538.55;2000389;97;25802;-79
2022/09/27 13:15:39;;;;;;;5.95;5.55;;;;;;;19.55;53.15;98536.90;2066933;93;25861;-79
2022/09/27 13:19:43;;;;;;;7.33;5.78;;;;;;;19.59;52.92;98539.80;1972442;95;25789;-80
2022/09/27 13:23:35;;;;;;;6.05;5.28;;;;;;;19.57;52.71;98531.09;1959947;99;25995;-80
2022/09/27 13:27:05;;;;;;;5.10;4.70;;;;;;;19.66;52.66;98527.22;1913835;100;25903;-79
2022/09/27 13:30:46;;;;;;;5.65;5.30;;;;;;;19.71;52.57;98527.89;1938719;100;25759;-79
2022/09/27 13:34:51;;;;;;;5.70;5.30;;;;;;;19.71;52.51;98515.11;1939450;99;25930;-79
2022/09/27 13:38:33;;;;;;;5.80;5.40;;;;;;;19.77;52.58;98507.77;1933283;100;25832;-79
2022/09/27 13:42:29;;;;;;;5.53;4.42;;;;;;;19.86;52.47;98509.64;1885232;103;25481;-79
2022/09/27 13:49:40;;;;;;;;;;;;;;;;;;;;;
2022/09/27 13:54:23;;;;;;;;;;;;;;;;;;;;;
2022/09/27 13:58:10;;;;;;;;;;;;;;;;;;;;;
2022/09/27 14:01:53;;;;;;;3.65;3.45;;;;;;;20.23;51.16;98492.50;1660353;112;25967;-80
2022/09/27 14:05:40;;;;;;;4.30;4.00;;;;;;;20.15;51.07;98496.41;1654117;118;25941;-79
2022/09/27 14:09:33;;;;;;;4.58;4.17;;;;;;;20.03;50.91;98485.47;1654281;118;25972;-79
2022/09/27 14:13:37;;;;;;;4.03;3.58;;;;;;;19.93;51.04;98489.92;1652647;114;25985;-79
2022/09/27 14:17:06;;;;;;;4.17;3.87;;;;;;;19.85;51.03;98477.52;1696831;112;25934;-79
2022/09/27 14:20:52;;;;;;;3.30;3.10;;;;;;;19.80;51.12;98473.73;1758456;110;25914;-80
2022/09/27 14:24:52;;;;;;;;;;;;;;;;;;;;;
2022/09/27 14:28:29;;;;;;;9.73;3.75;;;;;;;19.69;50.98;98470.25;1784667;109;25855;-80
2022/09/27 14:32:13;;;;;;;6.37;3.95;;;;;;;19.68;51.11;98466.38;1781385;106;25931;-79
2022/09/27 14:39:44;;;;;;;4.78;4.37;;;;;;;19.56;51.13;98477.82;1778201;109;25904;-80
2022/09/27 14:43:19;;;;;;;4.10;3.80;;;;;;;19.50;51.20;98469.30;1846644;105;25833;-80
2022/09/27 14:47:07;;;;;;;4.15;3.85;;;;;;;19.44;51.28;98473.52;1925703;101;25851;-80
2022/09/27 14:50:45;;;;;;;4.65;4.25;;;;;;;19.41;51.42;98477.17;1928673;101;26143;-79
2022/09/27 14:54:16;;;;;;;5.62;4.95;;;;;;;19.39;51.51;98474.20;1945386;101;25781;-79
2022/09/27 14:57:47;;;;;;;8.30;5.45;;;;;;;19.27;51.54;98471.59;1967047;98;25995;-80
2022/09/27 15:01:14;;;;;;;;;;;;;;;19.13;51.79;98468.21;2008670;97;25852;-80
2022/09/27 15:04:40;;;;;;;;;;;;;;;19.01;51.88;98459.50;1932382;99;26484;-79
2022/09/27 15:08:10;;;;;;;4.17;3.87;;;;;;;18.94;52.08;98469.92;1951819;99;25899;-79
2022/09/27 15:11:44;;;;;;;3.98;3.58;;;;;;;19.00;52.18;98474.92;1948842;100;25925;-77
2022/09/27 15:15:15;;;;;;;3.85;3.55;;;;;;;19.12;52.14;98463.86;1962592;99;26469;-77
2022/09/27 15:19:17;;;;;;;4.03;3.67;;;;;;;19.23;52.01;98468.69;1954122;99;25894;-77
2022/09/27 15:22:55;;;;;;;9.83;4.12;;;;;;;19.28;51.96;98473.33;1989542;98;26203;-79
2022/09/27 15:26:18;;;;;;;5.20;3.70;;;;;;;19.27;51.89;98466.31;1988158;98;25862;-77
2022/09/27 15:29:52;;;;;;;4.35;4.05;;;;;;;19.25;51.91;98468.17;1986615;98;26124;-79
2022/09/27 15:33:44;;;;;;;;;;;;;;;;;;;;;
2022/09/27 15:37:06;;;;;;;4.25;3.95;;;;;;;19.32;51.92;98461.70;1897643;102;25941;-78
2022/09/27 15:40:46;;;;;;;4.47;4.17;;;;;;;19.34;51.85;98470.44;1895492;102;26493;-79
2022/09/27 15:44:57;;;;;;;4.03;3.72;;;;;;;19.30;51.87;98461.78;1906486;102;26407;-79
2022/09/27 15:48:36;;;;;;;4.97;4.58;;;;;;;19.29;51.90;98448.16;1908446;102;26452;-80
2022/09/27 15:52:06;;;;;;;4.78;4.47;;;;;;;19.26;51.89;98445.64;1908803;102;26197;-77
2022/09/27 15:55:36;;;;;;;5.12;4.72;;;;;;;19.18;51.91;98442.48;1908868;102;25906;-78
2022/09/27 15:59:13;;;;;;;5.12;4.72;;;;;;;19.11;51.99;98434.42;1909242;101;25902;-77
2022/09/27 16:02:43;;;;;;;4.90;4.60;;;;;;;19.03;52.08;98432.55;1974846;98;26066;-78
2022/09/27 16:06:20;;;;;;;5.03;4.67;;;;;;;18.98;52.21;98434.54;1979649;98;25894;-78
2022/09/27 16:09:45;;;;;;;4.87;4.58;;;;;;;18.88;52.37;98426.98;1981151;98;26061;-77
2022/09/27 16:13:06;;;;;;;5.37;4.70;;;;;;;18.87;52.49;98433.20;1981833;98;25954;-77
2022/09/27 16:16:52;;;;;;;5.05;4.75;;;;;;;18.79;52.52;98430.00;1981954;98;26585;-77
2022/09/27 16:20:26;;;;;;;7.00;4.75;;;;;;;18.71;52.65;98432.08;1984772;96;25947;-78
2022/09/27 16:23:56;;;;;;;4.67;4.35;;;;;;;18.69;52.81;98439.19;2036919;95;25845;-79
2022/09/27 16:27:28;;;;;;;4.83;4.53;;;;;;;18.68;52.88;98432.20;2005354;97;25829;-76
2022/09/27 16:30:54;;;;;;;4.58;4.17;;;;;;;18.62;52.96;98443.84;2006007;98;25514;-78
2022/09/27 16:34:19;;;;;;;5.67;4.45;;;;;;;18.58;53.02;98448.00;2045984;95;26221;-77
2022/09/27 16:37:44;;;;;;;5.72;4.78;;;;;;;18.52;53.13;98458.80;2048276;95;25777;-76
2022/09/27 16:41:19;;;;;;;6.85;5.22;;;;;;;18.42;53.31;98451.70;2057229;95;25889;-76
2022/09/27 16:44:39;;;;;;;7.58;4.78;;;;;;;18.40;53.42;98450.92;2053192;94;26142;-77
2022/09/27 16:48:06;;;;;;;4.95;4.55;;;;;;;18.37;53.55;98458.48;2047445;94;26296;-77
2022/09/27 16:55:31;;;;;;;5.28;4.80;;;;;;;18.35;53.65;98443.63;2079177;94;25831;-77
2022/09/27 16:59:05;;;;;;;4.37;4.05;;;;;;;18.33;53.70;98443.70;2068512;95;25758;-78
2022/09/27 17:02:36;;;;;;;5.15;4.75;;;;;;;18.29;53.80;98443.86;2068580;94;25732;-77
2022/09/27 17:06:33;;;;;;;4.72;4.42;;;;;;;18.27;53.84;98443.08;2068650;95;25898;-79
2022/09/27 17:09:57;;;;;;;7.25;4.53;;;;;;;18.22;53.94;98439.28;2029789;95;34815;-79
2022/09/27 17:13:25;;;;;;;4.95;4.58;;;;;;;18.14;54.00;98444.00;2027486;97;25805;-78
2022/09/27 17:17:03;;;;;;;5.30;4.92;;;;;;;18.07;54.09;98445.16;2003684;97;25953;-79
2022/09/27 17:20:38;;;;;;;4.50;4.10;;;;;;;18.04;54.21;98451.39;2038049;95;25932;-79
2022/09/27 17:24:13;;;;;;;4.15;3.85;;;;;;;18.06;54.24;98464.07;2096036;92;25751;-78
2022/09/27 17:27:44;;;;;;;5.78;4.70;;;;;;;18.02;54.32;98454.56;2063240;94;25818;-79
2022/09/27 17:31:14;;;;;;;4.97;4.47;;;;;;;18.00;54.34;98444.98;2033334;95;25787;-80
2022/09/27 17:34:35;;;;;;;4.45;4.05;;;;;;;17.99;54.40;98443.25;2080630;93;33037;-80
2022/09/27 17:41:49;;;;;;;6.17;4.33;;;;;;;17.90;54.52;98455.01;1964344;99;25706;-78
2022/09/27 17:45:15;;;;;;;4.58;4.25;;;;;;;17.88;54.57;98449.78;1999656;97;25835;-79
2022/09/27 17:52:46;;;;;;;5.35;4.85;;;;;;;17.83;54.70;98450.88;1987294;98;25767;-79
2022/09/27 17:56:07;;;;;;;4.83;4.45;;;;;;;17.81;54.75;98441.70;1987027;98;25877;-79
2022/09/27 18:02:09;;;;;;;4.70;4.40;;;;;;;17.81;54.86;98451.38;2554251;75;25559;-79
2022/09/27 18:05:34;;;;;;;5.17;4.45;;;;;;;17.74;54.96;98446.77;2452837;78;25592;-80